Main page
METAR-TAF:

METAR-TAF

Airports :

Antananarivo, Madagascar

Ivato International Airport

latitude: 18-48S, longitude: 047-29E, elevation: 1279 m

Current weather observation

The report was made 34 minutes ago, at 15:30 UTC
Wind 11 kt from the East/Southeast
Temperature 18°C
Humidity 73%
Pressure 1021 hPa
Visibility 10 km or more
Few clouds at a height of 2000 ft

METAR: FMMI 251530Z 11011KT 9999 FEW020 18/13 Q1021 NOSIG

Time: 19:04 (16:04 UTC)

Forecast

The report was made 5 hours and 4 minutes ago, at 11:00 UTC
Forecast valid from 25 at 12 UTC to 26 at 18 UTC
Wind 10 kt from the Southeast
Visibility 10 km or more
Scattered clouds at a height of 2000 ft

TAF: FMMI 251100Z 2512/2618 14010KT 9999 SCT020

Weather observations and forecasts of more than 4000 airports (METAR and TAF reports).

The available stations are represented by yellow and red dots on the map.

Hover mouse over dot to see the name of the station.

Then click to see weather observations and forecasts.

To change the map : click on the green buttons with a black cross to zoom in, on the green button with a dash to zoom out, or on the green arrows for adjacent maps.


METAR-TAF: